createdAt,value
2018-01-06T00:01:27.988Z,98085.09
2018-01-06T00:07:32.589Z,98096.29
2018-01-06T00:13:36.259Z,98103.39
2018-01-06T00:19:39.698Z,98100.27
2018-01-06T00:25:43.207Z,98123.58
2018-01-06T00:31:46.954Z,98114.83
2018-01-06T00:37:50.413Z,98114.55
2018-01-06T00:43:54.171Z,98115.33
2018-01-06T00:49:58.607Z,98125.34
2018-01-06T00:56:02.235Z,98133.00
2018-01-06T01:02:05.833Z,98130.30
2018-01-06T01:08:09.285Z,98147.44
2018-01-06T01:14:12.992Z,98156.97
2018-01-06T01:20:16.483Z,98166.72
2018-01-06T01:26:19.992Z,98163.89
2018-01-06T01:32:23.790Z,98180.20
2018-01-06T01:38:27.762Z,98181.31
2018-01-06T01:44:31.326Z,98181.48
2018-01-06T01:50:35.068Z,98186.55
2018-01-06T01:56:38.511Z,98195.17
2018-01-06T02:02:42.933Z,98201.59
2018-01-06T02:08:46.526Z,98210.89
2018-01-06T02:14:50.021Z,98217.23
2018-01-06T02:20:53.996Z,98217.94
2018-01-06T02:26:58.675Z,98226.97
2018-01-06T02:33:02.311Z,98230.64
2018-01-06T02:39:05.937Z,98248.81
2018-01-06T02:45:09.410Z,98251.98
2018-01-06T02:51:13.103Z,98264.38
2018-01-06T02:57:16.708Z,98249.68
2018-01-06T03:03:20.196Z,98254.73
2018-01-06T03:09:23.957Z,98246.57
2018-01-06T03:15:28.309Z,98244.02
2018-01-06T03:21:31.861Z,98246.88
2018-01-06T03:27:36.088Z,98251.27
2018-01-06T03:33:39.608Z,98252.81
2018-01-06T03:39:43.138Z,98254.25
2018-01-06T03:45:47.495Z,98257.38
2018-01-06T03:58:01.482Z,98262.78
2018-01-06T04:04:05.854Z,98269.00
2018-01-06T04:10:09.303Z,98276.75
2018-01-06T04:16:13.688Z,98287.05
2018-01-06T04:22:17.941Z,98284.19
2018-01-06T04:28:21.441Z,98289.62
2018-01-06T04:34:25.208Z,98307.77
2018-01-06T04:40:29.031Z,98313.44
2018-01-06T04:46:33.563Z,98316.87
2018-01-06T04:52:37.148Z,98323.45
2018-01-06T04:58:40.696Z,98324.56
2018-01-06T05:04:44.334Z,98325.45
2018-01-06T05:10:47.862Z,98324.87
2018-01-06T05:16:51.677Z,98325.38
2018-01-06T05:22:57.602Z,98315.83
2018-01-06T05:29:01.146Z,98324.13
2018-01-06T05:35:04.835Z,98335.61
2018-01-06T05:41:08.766Z,98342.95
2018-01-06T05:47:13.041Z,98345.95
2018-01-06T05:53:16.743Z,98356.30
2018-01-06T05:59:20.254Z,98377.30
2018-01-06T06:05:24.184Z,98382.50
2018-01-06T06:11:28.582Z,98395.67
2018-01-06T06:17:32.253Z,98409.22
2018-01-06T06:23:36.768Z,98403.36
2018-01-06T06:29:41.032Z,98413.78
2018-01-06T06:35:45.503Z,98424.54
2018-01-06T06:41:49.725Z,98437.54
2018-01-06T06:47:53.955Z,98440.60
2018-01-06T06:53:57.476Z,98439.83
2018-01-06T07:00:00.948Z,98438.73
2018-01-06T07:06:04.456Z,98426.95
2018-01-06T07:12:07.928Z,98415.96
2018-01-06T07:18:11.353Z,98430.27
2018-01-06T07:24:15.128Z,98439.48
2018-01-06T07:30:18.635Z,98451.50
2018-01-06T07:36:22.147Z,98460.56
2018-01-06T07:42:25.666Z,98465.13
2018-01-06T07:48:29.679Z,98470.09
2018-01-06T07:54:33.293Z,98467.78
2018-01-06T08:00:36.801Z,98477.86
2018-01-06T08:06:41.274Z,98494.73
2018-01-06T08:12:45.555Z,98495.97
2018-01-06T08:18:49.783Z,98503.03
2018-01-06T08:24:53.560Z,98504.86
2018-01-06T08:30:58.172Z,98518.39
2018-01-06T08:37:02.426Z,98529.22
2018-01-06T08:43:05.871Z,98536.70
2018-01-06T08:49:09.407Z,98541.44
2018-01-06T08:55:12.878Z,98547.73
2018-01-06T09:01:16.463Z,98547.17
2018-01-06T09:07:19.940Z,98569.34
2018-01-06T09:13:23.419Z,98551.41
2018-01-06T09:19:27.798Z,98563.02
2018-01-06T09:25:31.397Z,98582.05
2018-01-06T09:31:35.714Z,98600.22
2018-01-06T09:37:39.359Z,98607.77
2018-01-06T09:43:42.914Z,98610.48
2018-01-06T09:49:46.349Z,98619.47
2018-01-06T09:55:50.587Z,98627.81
2018-01-06T10:01:54.034Z,98632.42
2018-01-06T10:07:58.099Z,98632.62
2018-01-06T10:14:01.637Z,98634.17
2018-01-06T10:20:05.249Z,98638.55
2018-01-06T10:26:08.737Z,98639.86
2018-01-06T10:32:12.311Z,98648.06
2018-01-06T10:38:15.836Z,98656.59
2018-01-06T10:44:19.328Z,98652.56
2018-01-06T10:50:22.898Z,98650.30
2018-01-06T10:56:26.880Z,98656.39
2018-01-06T11:02:30.664Z,98651.84
2018-01-06T11:08:34.117Z,98655.98
2018-01-06T11:14:37.763Z,98659.81
2018-01-06T11:20:41.241Z,98662.14
2018-01-06T11:26:44.773Z,98662.27
2018-01-06T11:32:48.317Z,98665.14
2018-01-06T11:38:52.517Z,98667.23
2018-01-06T11:44:58.029Z,98664.84
2018-01-06T11:51:01.489Z,98673.70
2018-01-06T11:57:04.984Z,98683.60
2018-01-06T12:03:10.012Z,98680.16
2018-01-06T12:09:13.520Z,98680.00
2018-01-06T12:15:16.957Z,98679.11
2018-01-06T12:21:20.427Z,98681.70
2018-01-06T12:27:25.166Z,98688.36
2018-01-06T12:33:28.716Z,98698.25
2018-01-06T12:39:32.312Z,98708.39
2018-01-06T12:45:35.754Z,98708.73
2018-01-06T12:51:39.218Z,98700.88
2018-01-06T12:57:42.794Z,98704.00
2018-01-06T13:03:46.410Z,98703.38
2018-01-06T13:09:50.001Z,98717.47
2018-01-06T13:15:53.554Z,98728.83
2018-01-06T13:21:57.769Z,98743.92
2018-01-06T13:28:01.374Z,98743.86
2018-01-06T13:34:05.672Z,98746.52
2018-01-06T13:40:09.936Z,98745.63
2018-01-06T13:46:14.190Z,98754.62
2018-01-06T13:52:17.794Z,98749.50
2018-01-06T13:58:21.307Z,98755.66
2018-01-06T14:04:25.336Z,98770.45
2018-01-06T14:10:29.150Z,98776.88
2018-01-06T14:16:32.652Z,98783.67
2018-01-06T14:22:36.166Z,98778.33
2018-01-06T14:28:41.189Z,98789.54
2018-01-06T14:34:44.640Z,98792.88
2018-01-06T14:40:48.740Z,98812.30
2018-01-06T14:46:52.400Z,98823.80
2018-01-06T14:52:57.494Z,98842.46
2018-01-06T14:59:01.112Z,98852.25
2018-01-06T15:05:04.919Z,98851.33
2018-01-06T15:11:08.383Z,98847.69
2018-01-06T15:17:12.019Z,98855.05
2018-01-06T15:23:15.494Z,98853.16
2018-01-06T15:29:19.079Z,98856.23
2018-01-06T15:35:22.837Z,98882.48
2018-01-06T15:41:26.486Z,98897.11
2018-01-06T15:47:30.466Z,98902.64
2018-01-06T15:53:34.025Z,98909.55
2018-01-06T15:59:37.490Z,98908.50
2018-01-06T16:05:41.716Z,98924.63
2018-01-06T16:11:45.930Z,98926.97
2018-01-06T16:17:49.438Z,98932.80
2018-01-06T16:23:53.123Z,98936.17
2018-01-06T16:29:57.692Z,98942.30
2018-01-06T16:36:01.313Z,98949.08
2018-01-06T16:42:05.081Z,98941.15
2018-01-06T16:48:09.603Z,98949.47
2018-01-06T16:54:13.155Z,98948.87
2018-01-06T17:00:16.839Z,98948.59
2018-01-06T17:06:20.645Z,98970.03
2018-01-06T17:12:24.588Z,98978.27
2018-01-06T17:18:28.544Z,98993.52
2018-01-06T17:24:32.126Z,98994.20
2018-01-06T17:30:35.610Z,98994.91
2018-01-06T17:36:39.095Z,99020.97
2018-01-06T17:42:43.532Z,99020.37
2018-01-06T17:48:47.768Z,99030.52
2018-01-06T17:54:51.378Z,99043.91
2018-01-06T18:00:55.161Z,99047.67
2018-01-06T18:06:58.845Z,99065.86
2018-01-06T18:13:02.320Z,99080.66
2018-01-06T18:19:06.618Z,99092.61
2018-01-06T18:25:10.108Z,99112.95
2018-01-06T18:31:13.617Z,99116.94
2018-01-06T18:37:17.890Z,99114.78
2018-01-06T18:43:21.337Z,99126.41
2018-01-06T18:49:26.044Z,99137.09
2018-01-06T18:55:29.586Z,99144.06
2018-01-06T19:01:33.035Z,99155.37
2018-01-06T19:07:36.590Z,99158.35
2018-01-06T19:13:40.062Z,99179.94
2018-01-06T19:19:43.565Z,99185.75
2018-01-06T19:25:47.007Z,99183.83
2018-01-06T19:31:50.677Z,99182.50
2018-01-06T19:37:55.272Z,99191.94
2018-01-06T19:43:58.756Z,99200.75
2018-01-06T19:50:02.209Z,99215.55
2018-01-06T19:56:05.670Z,99234.48
2018-01-06T20:02:09.172Z,99250.70
2018-01-06T20:08:12.650Z,99263.22
2018-01-06T20:14:16.930Z,99279.67
2018-01-06T20:20:20.478Z,99287.92
2018-01-06T20:26:24.722Z,99296.31
2018-01-06T20:32:28.945Z,99313.17
2018-01-06T20:38:32.752Z,99314.25
2018-01-06T20:44:36.238Z,99324.95
2018-01-06T20:50:39.846Z,99333.75
2018-01-06T20:56:43.323Z,99332.25
2018-01-06T21:02:48.297Z,99339.64
2018-01-06T21:08:51.907Z,99351.27
2018-01-06T21:14:55.483Z,99363.73
2018-01-06T21:20:59.145Z,99363.29
2018-01-06T21:27:02.744Z,99371.52
2018-01-06T21:33:06.995Z,99392.94
2018-01-06T21:39:10.601Z,99393.14
2018-01-06T21:45:14.173Z,99395.87
2018-01-06T21:51:17.720Z,99399.59
2018-01-06T21:57:21.219Z,99401.73
2018-01-06T22:03:24.716Z,99416.20
2018-01-06T22:09:28.653Z,99427.57
2018-01-06T22:15:32.254Z,99435.52
2018-01-06T22:21:35.745Z,99444.09
2018-01-06T22:27:39.188Z,99450.30
2018-01-06T22:33:42.707Z,99446.62
2018-01-06T22:39:46.351Z,99459.28
2018-01-06T22:45:49.968Z,99472.33
2018-01-06T22:51:53.466Z,99473.91
2018-01-06T22:57:58.145Z,99482.48
2018-01-06T23:04:01.728Z,99484.64
2018-01-06T23:10:05.250Z,99495.96
2018-01-06T23:16:09.639Z,99498.80
2018-01-06T23:22:13.142Z,99512.64
2018-01-06T23:28:16.904Z,99507.67
2018-01-06T23:34:20.428Z,99519.10
2018-01-06T23:40:24.580Z,99531.88
2018-01-06T23:46:28.381Z,99532.32
2018-01-06T23:52:32.892Z,99537.57
2018-01-06T23:58:37.329Z,99543.55
